If you wish to contribute or participate in the discussions about articles you are invited to join SKYbrary as a registered user

 Actions

Baku/Heydar Aliyev

From SKYbrary Wiki

UBBB
Airport
ICAO: UBBB – IATA: GYD
Summary
Name Baku/Heydar Aliyev
Region Asia and Pacific
Territory Azerbaijan AZ.gif
Location Baku
Serving Baku
Elevation 3,048,000 m
10,000,000.015 ft
10,000,000.015 ft3,048,000 m
Coordinates 40° 28' 15.00" N, 50° 3' 6.00" E
Runways
Designator Length Width Surface ROPS
16/34 2700 m8,858.268 ft
60 m196.85 ft
ASP yes/yes
18/36 3200 m10,498.688 ft
51 m167.323 ft
CON yes/yes


METAR
Observation UBBB 111030Z 33008KT 9999 OVC019 15/11 Q1012 R88/CLRD// NOSIG
Station Baku / Bine Airport
Date/Time 11 April 2019 10:30:00
Wind direction 330°
Wind speed 08 kts
Lowest cloud amount overcast
Temperature 15°C
Dew point 11°C
Humidity 77%
QNH 1012 hPa
Weather condition n/a

Baku/Heydar Aliyev International Airport

ICAO: UBBB IATA: GYD

Description

International airport serving the city of Baku, Azerbaijan. Busiest in the Caucasus.

Climatology

(Köppen climate classification BWk)


Maps

Terrain

Loading map...

Airport Layout

Loading map...


Accidents & Serious Incidents at or in vicinity of UBBB

None on SKYbrary